Stolt Sanderling — 2GBH7 — position and weather

sailwx.info

Track history (hours):
 
Tides and Currents Weather Stations Pressure Air Temp Water Temp Dewpoint Dewpoint Depression Visibility Wind Speed Wind Dir Waves Ship Positions

Stolt Sanderling

Last reported at 2017-Sep-21 23:57 UTC. Time now 2017-Sep-22 19:09 UTC.
Position N 51°53' E 004°18'.

Length 91 m; draft 5 m.

Type: Ship (hazmat cat B). MMSI: 235095972.

Date/timePositionNaut miles runAvg speedWind from/ knotsBaromVisibWave heightAir tempDewpointWater temp
2017-Sep-21 23:57N 51°53' E 004°18'0 0.0
2017-Sep-21 22:54N 51°53' E 004°18'0 0.0
2017-Sep-21 22:06N 51°53' E 004°18'0 0.0
2017-Sep-21 19:39N 51°53' E 004°18'0 0.0
2017-Sep-21 19:06N 51°53' E 004°18'0 0.0
2017-Sep-21 18:57N 51°53' E 004°18'0 0.0
2017-Sep-21 18:09N 51°53' E 004°18'0 0.0
2017-Sep-21 18:00N 51°53' E 004°18'0 0.0
2017-Sep-21 17:09N 51°53' E 004°18'0 0.0
2017-Sep-21 16:51N 51°53' E 004°18'0 0.0
2017-Sep-21 16:21N 51°53' E 004°18'0 0.7
2017-Sep-21 16:00N 51°53' E 004°18'2 4.5
2017-Sep-21 15:31N 51°55' E 004°15'713.3
2017-Sep-21 15:00N 51°59' E 004°06'612.7
2017-Sep-21 14:30N 52°01' E 003°56'5 9.8
2017-Sep-21 14:00N 52°00' E 003°48'6411.4
2017-Sep-21 08:21N 51°31' E 002°16'410.9
2017-Sep-21 08:00N 51°27' E 002°14'611.2
2017-Sep-21 07:30N 51°22' E 002°10'611.5
2017-Sep-21 07:00N 51°17' E 002°07'510.7
2017-Sep-21 06:30N 51°13' E 002°02'611.6
2017-Sep-21 06:00N 51°10' E 001°53'611.6
2017-Sep-21 05:30N 51°07' E 001°46'612.0
2017-Sep-21 05:00N 51°03' E 001°39'7211.8
2017-Sep-20 22:55N 50°20' E 000°07'714.3
2017-Sep-20 22:23N 50°19' W 000°05'5516.1
2017-Sep-20 18:59N 50°05' W 001°28'815.9
2017-Sep-20 18:30N 50°03' W 001°39'815.3
2017-Sep-20 17:59N 50°01' W 001°51'3612.7
2017-Sep-20 15:07N 49°52' W 002°46'111.3
2017-Sep-20 15:01N 49°52' W 002°47'1511.0
2017-Sep-20 13:41N 49°45' W 003°07'311.1
2017-Sep-20 13:25N 49°43' W 003°12'411.1
2017-Sep-20 13:00N 49°41' W 003°18'611.2
2017-Sep-20 12:30N 49°38' W 003°25'611.4
2017-Sep-20 11:58N 49°35' W 003°33'711.3
2017-Sep-20 11:19N 49°31' W 003°43'511.3
2017-Sep-20 10:51N 49°29' W 003°50'511.3
2017-Sep-20 10:27N 49°26' W 003°56'511.4
2017-Sep-20 09:58N 49°24' W 004°03'611.5
2017-Sep-20 09:29N 49°21' W 004°10'611.7
2017-Sep-20 08:59N 49°18' W 004°18'711.9
2017-Sep-20 08:25N 49°14' W 004°27'512.2
2017-Sep-20 08:00N 49°11' W 004°34'2613.0
2017-Sep-20 05:59N 48°57' W 005°07'1114.4
2017-Sep-20 05:14N 48°52' W 005°22'314.6
2017-Sep-20 05:00N 48°51' W 005°26'714.7
2017-Sep-20 04:30N 48°46' W 005°35'914.7
2017-Sep-20 03:52N 48°39' W 005°43'614.7
2017-Sep-20 03:26N 48°33' W 005°48'2014.6
2017-Sep-20 02:02N 48°15' W 006°03'214.4
2017-Sep-20 01:53N 48°13' W 006°05'1914.3
2017-Sep-20 00:33N 47°57' W 006°18'  
2017-Sep-16 17:50N 39°19' W 009°51'310.0
2017-Sep-16 17:30N 39°15' W 009°51'5 9.9
2017-Sep-16 17:00N 39°10' W 009°51'510.0
2017-Sep-16 16:30N 39°05' W 009°51'510.0
2017-Sep-16 16:01N 39°01' W 009°51'510.0
2017-Sep-16 15:30N 38°55' W 009°51'5 9.6
2017-Sep-16 15:01N 38°51' W 009°51'5 9.6
2017-Sep-16 14:30N 38°46' W 009°51'5 9.6
2017-Sep-16 14:01N 38°41' W 009°51'5 9.5
2017-Sep-16 13:30N 38°36' W 009°50'5 9.1
2017-Sep-16 13:00N 38°32' W 009°48'5 9.5
2017-Sep-16 12:31N 38°27' W 009°47'5 9.4
2017-Sep-16 12:00N 38°23' W 009°46'5 9.4
2017-Sep-16 11:26N 38°18' W 009°44'1310.0
2017-Sep-16 10:10N 38°05' W 009°40'123 8.1
2017-Sep-15 18:56N 36°33' W 007°58'3011.2
2017-Sep-15 16:16N 36°28' W 007°22'411.4
2017-Sep-15 15:57N 36°27' W 007°17'86 3.6
2017-Sep-14 16:10N 35°01' W 007°18'1010.4
2017-Sep-14 15:12N 34°52' W 007°20'210.8
2017-Sep-14 15:00N 34°50' W 007°21'510.9
2017-Sep-14 14:30N 34°44' W 007°22'510.6
2017-Sep-14 13:59N 34°39' W 007°24'710.5
2017-Sep-14 13:19N 34°32' W 007°26'610.1
2017-Sep-14 12:40N 34°26' W 007°28'2 9.9
2017-Sep-14 12:30N 34°24' W 007°29'117 3.4
2017-Sep-13 02:02N 35°53' W 005°56'413.1
2017-Sep-13 01:43N 35°57' W 005°53'913.2
2017-Sep-13 01:01N 35°57' W 005°41'411.8
2017-Sep-13 00:38N 35°57' W 005°36'111.9
2017-Sep-13 00:30N 35°58' W 005°34'511.0
2017-Sep-13 00:00N 36°00' W 005°28'611.5
2017-Sep-12 23:30N 36°04' W 005°23'610.7
2017-Sep-12 22:56N 36°10' W 005°24'2 0.2
2017-Sep-12 09:50N 36°08' W 005°24'2 6.2
2017-Sep-12 09:30N 36°07' W 005°23'510.2
2017-Sep-12 09:00N 36°04' W 005°18'1 2.6
2017-Sep-12 08:30N 36°04' W 005°16'0 0.1
2017-Sep-12 08:00N 36°04' W 005°16'1 1.0
2017-Sep-12 07:30N 36°04' W 005°17'0 0.3
2017-Sep-12 07:00N 36°04' W 005°17'0 0.5
2017-Sep-12 06:30N 36°04' W 005°16'1 1.3
2017-Sep-12 06:00N 36°05' W 005°16'1 1.2
2017-Sep-12 05:30N 36°05' W 005°16'1 1.0
2017-Sep-12 05:00N 36°05' W 005°16'0 0.3
2017-Sep-12 04:30N 36°05' W 005°16'3 6.5
2017-Sep-12 04:00N 36°03' W 005°19'510.4
2017-Sep-12 03:30N 35°59' W 005°23'510.2
2017-Sep-12 03:01N 35°57' W 005°29'710.5
2017-Sep-12 02:22N 35°55' W 005°37'410.8
2017-Sep-12 02:00N 35°55' W 005°42'  
Track history (hours):
 
Tides and Currents Weather Stations Pressure Air Temp Water Temp Dewpoint Dewpoint Depression Visibility Wind Speed Wind Dir Waves Ship Positions

Stolt Sanderling

Last reported at 2017-Sep-21 23:57 UTC. Time now 2017-Sep-22 19:09 UTC.
Position N 51°53' E 004°18'.

Length 91 m; draft 5 m.

Type: Ship (hazmat cat B). MMSI: 235095972.

Date/timePositionNaut miles runAvg speedWind from/ knotsBaromVisibWave heightAir tempDewpointWater temp
2017-Sep-21 23:57N 51°53' E 004°18'0 0.0
2017-Sep-21 22:54N 51°53' E 004°18'0 0.0
2017-Sep-21 22:06N 51°53' E 004°18'0 0.0
2017-Sep-21 19:39N 51°53' E 004°18'0 0.0
2017-Sep-21 19:06N 51°53' E 004°18'0 0.0
2017-Sep-21 18:57N 51°53' E 004°18'0 0.0
2017-Sep-21 18:09N 51°53' E 004°18'0 0.0
2017-Sep-21 18:00N 51°53' E 004°18'0 0.0
2017-Sep-21 17:09N 51°53' E 004°18'0 0.0
2017-Sep-21 16:51N 51°53' E 004°18'0 0.0
2017-Sep-21 16:21N 51°53' E 004°18'0 0.7
2017-Sep-21 16:00N 51°53' E 004°18'2 4.5
2017-Sep-21 15:31N 51°55' E 004°15'713.3
2017-Sep-21 15:00N 51°59' E 004°06'612.7
2017-Sep-21 14:30N 52°01' E 003°56'5 9.8
2017-Sep-21 14:00N 52°00' E 003°48'6411.4
2017-Sep-21 08:21N 51°31' E 002°16'410.9
2017-Sep-21 08:00N 51°27' E 002°14'611.2
2017-Sep-21 07:30N 51°22' E 002°10'611.5
2017-Sep-21 07:00N 51°17' E 002°07'510.7
2017-Sep-21 06:30N 51°13' E 002°02'611.6
2017-Sep-21 06:00N 51°10' E 001°53'611.6
2017-Sep-21 05:30N 51°07' E 001°46'612.0
2017-Sep-21 05:00N 51°03' E 001°39'7211.8
2017-Sep-20 22:55N 50°20' E 000°07'714.3
2017-Sep-20 22:23N 50°19' W 000°05'5516.1
2017-Sep-20 18:59N 50°05' W 001°28'815.9
2017-Sep-20 18:30N 50°03' W 001°39'815.3
2017-Sep-20 17:59N 50°01' W 001°51'3612.7
2017-Sep-20 15:07N 49°52' W 002°46'111.3
2017-Sep-20 15:01N 49°52' W 002°47'1511.0
2017-Sep-20 13:41N 49°45' W 003°07'311.1
2017-Sep-20 13:25N 49°43' W 003°12'411.1
2017-Sep-20 13:00N 49°41' W 003°18'611.2
2017-Sep-20 12:30N 49°38' W 003°25'611.4
2017-Sep-20 11:58N 49°35' W 003°33'711.3
2017-Sep-20 11:19N 49°31' W 003°43'511.3
2017-Sep-20 10:51N 49°29' W 003°50'511.3
2017-Sep-20 10:27N 49°26' W 003°56'511.4
2017-Sep-20 09:58N 49°24' W 004°03'611.5
2017-Sep-20 09:29N 49°21' W 004°10'611.7
2017-Sep-20 08:59N 49°18' W 004°18'711.9
2017-Sep-20 08:25N 49°14' W 004°27'512.2
2017-Sep-20 08:00N 49°11' W 004°34'2613.0
2017-Sep-20 05:59N 48°57' W 005°07'1114.4
2017-Sep-20 05:14N 48°52' W 005°22'314.6
2017-Sep-20 05:00N 48°51' W 005°26'714.7
2017-Sep-20 04:30N 48°46' W 005°35'914.7
2017-Sep-20 03:52N 48°39' W 005°43'614.7
2017-Sep-20 03:26N 48°33' W 005°48'2014.6
2017-Sep-20 02:02N 48°15' W 006°03'214.4
2017-Sep-20 01:53N 48°13' W 006°05'1914.3
2017-Sep-20 00:33N 47°57' W 006°18'  
2017-Sep-16 17:50N 39°19' W 009°51'310.0
2017-Sep-16 17:30N 39°15' W 009°51'5 9.9
2017-Sep-16 17:00N 39°10' W 009°51'510.0
2017-Sep-16 16:30N 39°05' W 009°51'510.0
2017-Sep-16 16:01N 39°01' W 009°51'510.0
2017-Sep-16 15:30N 38°55' W 009°51'5 9.6
2017-Sep-16 15:01N 38°51' W 009°51'5 9.6
2017-Sep-16 14:30N 38°46' W 009°51'5 9.6
2017-Sep-16 14:01N 38°41' W 009°51'5 9.5
2017-Sep-16 13:30N 38°36' W 009°50'5 9.1
2017-Sep-16 13:00N 38°32' W 009°48'5 9.5
2017-Sep-16 12:31N 38°27' W 009°47'5 9.4
2017-Sep-16 12:00N 38°23' W 009°46'5 9.4
2017-Sep-16 11:26N 38°18' W 009°44'1310.0
2017-Sep-16 10:10N 38°05' W 009°40'123 8.1
2017-Sep-15 18:56N 36°33' W 007°58'3011.2
2017-Sep-15 16:16N 36°28' W 007°22'411.4
2017-Sep-15 15:57N 36°27' W 007°17'86 3.6
2017-Sep-14 16:10N 35°01' W 007°18'1010.4
2017-Sep-14 15:12N 34°52' W 007°20'210.8
2017-Sep-14 15:00N 34°50' W 007°21'510.9
2017-Sep-14 14:30N 34°44' W 007°22'510.6
2017-Sep-14 13:59N 34°39' W 007°24'710.5
2017-Sep-14 13:19N 34°32' W 007°26'610.1
2017-Sep-14 12:40N 34°26' W 007°28'2 9.9
2017-Sep-14 12:30N 34°24' W 007°29'117 3.4
2017-Sep-13 02:02N 35°53' W 005°56'413.1
2017-Sep-13 01:43N 35°57' W 005°53'913.2
2017-Sep-13 01:01N 35°57' W 005°41'411.8
2017-Sep-13 00:38N 35°57' W 005°36'111.9
2017-Sep-13 00:30N 35°58' W 005°34'511.0
2017-Sep-13 00:00N 36°00' W 005°28'611.5
2017-Sep-12 23:30N 36°04' W 005°23'610.7
2017-Sep-12 22:56N 36°10' W 005°24'2 0.2
2017-Sep-12 09:50N 36°08' W 005°24'2 6.2
2017-Sep-12 09:30N 36°07' W 005°23'510.2
2017-Sep-12 09:00N 36°04' W 005°18'1 2.6
2017-Sep-12 08:30N 36°04' W 005°16'0 0.1
2017-Sep-12 08:00N 36°04' W 005°16'1 1.0
2017-Sep-12 07:30N 36°04' W 005°17'0 0.3
2017-Sep-12 07:00N 36°04' W 005°17'0 0.5
2017-Sep-12 06:30N 36°04' W 005°16'1 1.3
2017-Sep-12 06:00N 36°05' W 005°16'1 1.2
2017-Sep-12 05:30N 36°05' W 005°16'1 1.0
2017-Sep-12 05:00N 36°05' W 005°16'0 0.3
2017-Sep-12 04:30N 36°05' W 005°16'3 6.5
2017-Sep-12 04:00N 36°03' W 005°19'510.4
2017-Sep-12 03:30N 35°59' W 005°23'510.2
2017-Sep-12 03:01N 35°57' W 005°29'710.5
2017-Sep-12 02:22N 35°55' W 005°37'410.8
2017-Sep-12 02:00N 35°55' W 005°42'  

Dump ship's entire track history